sensor_id;sensor_type;location;lat;lon;timestamp;temperature;humidity
9375;DHT22;4727;51.202;6.344;2022-08-06T00:02:22;14.60;1.00
9375;DHT22;4727;51.202;6.344;2022-08-06T00:04:49;14.60;99.90
9375;DHT22;4727;51.202;6.344;2022-08-06T00:07:15;14.60;99.90
9375;DHT22;4727;51.202;6.344;2022-08-06T00:09:40;14.60;99.90
9375;DHT22;4727;51.202;6.344;2022-08-06T00:12:07;14.60;99.90
9375;DHT22;4727;51.202;6.344;2022-08-06T00:14:33;14.60;1.00
9375;DHT22;4727;51.202;6.344;2022-08-06T00:16:59;14.50;1.00
9375;DHT22;4727;51.202;6.344;2022-08-06T00:19:25;14.40;99.90
9375;DHT22;4727;51.202;6.344;2022-08-06T00:21:51;14.30;99.90
9375;DHT22;4727;51.202;6.344;2022-08-06T00:24:17;14.20;99.90
9375;DHT22;4727;51.202;6.344;2022-08-06T00:26:43;14.20;93.70
9375;DHT22;4727;51.202;6.344;2022-08-06T00:29:09;14.10;99.90
9375;DHT22;4727;51.202;6.344;2022-08-06T00:31:35;14.10;1.00
9375;DHT22;4727;51.202;6.344;2022-08-06T00:34:01;14.10;1.00
9375;DHT22;4727;51.202;6.344;2022-08-06T00:36:28;14.10;99.90
9375;DHT22;4727;51.202;6.344;2022-08-06T00:38:56;14.10;1.00
9375;DHT22;4727;51.202;6.344;2022-08-06T00:41:22;14.10;99.90
9375;DHT22;4727;51.202;6.344;2022-08-06T00:43:48;14.10;1.00
9375;DHT22;4727;51.202;6.344;2022-08-06T00:46:13;14.20;99.90
9375;DHT22;4727;51.202;6.344;2022-08-06T00:48:39;14.20;1.00
9375;DHT22;4727;51.202;6.344;2022-08-06T00:51:05;14.20;1.00
9375;DHT22;4727;51.202;6.344;2022-08-06T00:53:30;14.20;1.00
9375;DHT22;4727;51.202;6.344;2022-08-06T00:55:56;14.20;1.00
9375;DHT22;4727;51.202;6.344;2022-08-06T00:58:22;14.20;1.00
9375;DHT22;4727;51.202;6.344;2022-08-06T01:00:47;14.10;1.00
9375;DHT22;4727;51.202;6.344;2022-08-06T01:03:14;14.10;99.90
9375;DHT22;4727;51.202;6.344;2022-08-06T01:05:42;13.90;1.00
9375;DHT22;4727;51.202;6.344;2022-08-06T01:08:09;13.90;1.00
9375;DHT22;4727;51.202;6.344;2022-08-06T01:10:35;13.80;99.90
9375;DHT22;4727;51.202;6.344;2022-08-06T01:13:01;13.60;1.00
9375;DHT22;4727;51.202;6.344;2022-08-06T01:15:26;13.60;99.90
9375;DHT22;4727;51.202;6.344;2022-08-06T01:18:07;13.60;99.90
9375;DHT22;4727;51.202;6.344;2022-08-06T01:29:02;13.40;99.90
9375;DHT22;4727;51.202;6.344;2022-08-06T01:32:00;13.30;1.00
9375;DHT22;4727;51.202;6.344;2022-08-06T01:34:32;13.20;1.00
9375;DHT22;4727;51.202;6.344;2022-08-06T01:39:32;13.20;1.00
9375;DHT22;4727;51.202;6.344;2022-08-06T01:42:00;13.20;99.90
9375;DHT22;4727;51.202;6.344;2022-08-06T01:44:30;13.00;1.00
9375;DHT22;4727;51.202;6.344;2022-08-06T01:47:00;12.90;1.00
9375;DHT22;4727;51.202;6.344;2022-08-06T01:49:28;12.80;99.90
9375;DHT22;4727;51.202;6.344;2022-08-06T01:51:57;12.80;99.90
9375;DHT22;4727;51.202;6.344;2022-08-06T01:54:25;12.80;1.00
9375;DHT22;4727;51.202;6.344;2022-08-06T01:56:54;12.70;99.90
9375;DHT22;4727;51.202;6.344;2022-08-06T01:59:24;12.60;99.90
9375;DHT22;4727;51.202;6.344;2022-08-06T02:01:53;12.60;99.90
9375;DHT22;4727;51.202;6.344;2022-08-06T02:04:22;12.60;99.90
9375;DHT22;4727;51.202;6.344;2022-08-06T02:06:48;12.60;1.00
9375;DHT22;4727;51.202;6.344;2022-08-06T02:09:19;12.60;99.90
9375;DHT22;4727;51.202;6.344;2022-08-06T02:12:03;12.60;1.00
9375;DHT22;4727;51.202;6.344;2022-08-06T02:14:32;12.60;1.00
9375;DHT22;4727;51.202;6.344;2022-08-06T02:16:59;12.60;1.00
9375;DHT22;4727;51.202;6.344;2022-08-06T02:19:28;12.60;1.00
9375;DHT22;4727;51.202;6.344;2022-08-06T02:21:55;12.60;1.00
9375;DHT22;4727;51.202;6.344;2022-08-06T02:24:22;12.60;1.00
9375;DHT22;4727;51.202;6.344;2022-08-06T02:26:51;12.50;1.00
9375;DHT22;4727;51.202;6.344;2022-08-06T02:29:18;12.50;1.00
9375;DHT22;4727;51.202;6.344;2022-08-06T02:31:45;12.50;99.90
9375;DHT22;4727;51.202;6.344;2022-08-06T02:34:10;12.40;1.00
9375;DHT22;4727;51.202;6.344;2022-08-06T02:36:41;12.40;1.00
9375;DHT22;4727;51.202;6.344;2022-08-06T02:39:18;12.40;1.00
9375;DHT22;4727;51.202;6.344;2022-08-06T02:42:07;12.40;1.00
9375;DHT22;4727;51.202;6.344;2022-08-06T02:44:42;12.40;99.90
9375;DHT22;4727;51.202;6.344;2022-08-06T02:47:17;12.40;99.90
9375;DHT22;4727;51.202;6.344;2022-08-06T02:49:46;12.40;1.00
9375;DHT22;4727;51.202;6.344;2022-08-06T02:52:19;12.40;1.00
9375;DHT22;4727;51.202;6.344;2022-08-06T02:54:51;12.30;1.00
9375;DHT22;4727;51.202;6.344;2022-08-06T02:57:23;12.30;1.00
9375;DHT22;4727;51.202;6.344;2022-08-06T02:59:53;12.30;1.00
9375;DHT22;4727;51.202;6.344;2022-08-06T03:02:22;12.30;1.00
9375;DHT22;4727;51.202;6.344;2022-08-06T03:04:49;12.30;1.00
9375;DHT22;4727;51.202;6.344;2022-08-06T03:07:17;12.20;1.00
9375;DHT22;4727;51.202;6.344;2022-08-06T03:09:47;12.20;1.00
9375;DHT22;4727;51.202;6.344;2022-08-06T03:12:15;12.20;1.00
9375;DHT22;4727;51.202;6.344;2022-08-06T03:14:43;12.30;1.00
9375;DHT22;4727;51.202;6.344;2022-08-06T03:17:12;12.20;1.00
9375;DHT22;4727;51.202;6.344;2022-08-06T03:19:39;12.20;1.00
9375;DHT22;4727;51.202;6.344;2022-08-06T03:22:08;12.10;1.00
9375;DHT22;4727;51.202;6.344;2022-08-06T03:24:35;12.00;1.00
9375;DHT22;4727;51.202;6.344;2022-08-06T03:27:02;12.00;1.00
9375;DHT22;4727;51.202;6.344;2022-08-06T03:29:29;11.90;63.50
9375;DHT22;4727;51.202;6.344;2022-08-06T03:31:55;11.80;99.90
9375;DHT22;4727;51.202;6.344;2022-08-06T03:34:21;11.80;99.90
9375;DHT22;4727;51.202;6.344;2022-08-06T03:36:47;11.70;1.00
9375;DHT22;4727;51.202;6.344;2022-08-06T03:39:14;11.60;99.90
9375;DHT22;4727;51.202;6.344;2022-08-06T03:41:40;11.70;1.00
9375;DHT22;4727;51.202;6.344;2022-08-06T03:44:07;11.80;37.20
9375;DHT22;4727;51.202;6.344;2022-08-06T03:46:51;11.80;99.90
9375;DHT22;4727;51.202;6.344;2022-08-06T03:49:23;11.80;99.90
9375;DHT22;4727;51.202;6.344;2022-08-06T03:51:51;11.90;78.80
9375;DHT22;4727;51.202;6.344;2022-08-06T03:54:25;11.90;55.70
9375;DHT22;4727;51.202;6.344;2022-08-06T03:56:54;12.00;24.00
9375;DHT22;4727;51.202;6.344;2022-08-06T03:59:20;12.00;1.00
9375;DHT22;4727;51.202;6.344;2022-08-06T04:01:47;11.90;1.00
9375;DHT22;4727;51.202;6.344;2022-08-06T04:04:14;11.90;1.00
9375;DHT22;4727;51.202;6.344;2022-08-06T04:06:42;11.90;1.00
9375;DHT22;4727;51.202;6.344;2022-08-06T04:09:09;11.80;83.40
9375;DHT22;4727;51.202;6.344;2022-08-06T04:11:36;11.80;99.90
9375;DHT22;4727;51.202;6.344;2022-08-06T04:14:02;11.80;99.90
9375;DHT22;4727;51.202;6.344;2022-08-06T04:16:28;11.70;57.90
9375;DHT22;4727;51.202;6.344;2022-08-06T04:18:56;11.60;56.30
9375;DHT22;4727;51.202;6.344;2022-08-06T04:21:23;11.50;86.70
9375;DHT22;4727;51.202;6.344;2022-08-06T04:23:49;11.50;76.80
9375;DHT22;4727;51.202;6.344;2022-08-06T04:26:19;11.40;45.30
9375;DHT22;4727;51.202;6.344;2022-08-06T04:28:50;11.40;99.90
9375;DHT22;4727;51.202;6.344;2022-08-06T04:31:18;11.30;1.00
9375;DHT22;4727;51.202;6.344;2022-08-06T04:33:45;11.20;99.90
9375;DHT22;4727;51.202;6.344;2022-08-06T04:36:11;11.30;99.90
9375;DHT22;4727;51.202;6.344;2022-08-06T04:38:37;11.40;99.90
9375;DHT22;4727;51.202;6.344;2022-08-06T04:41:04;11.50;99.90
9375;DHT22;4727;51.202;6.344;2022-08-06T04:43:30;11.50;99.90
9375;DHT22;4727;51.202;6.344;2022-08-06T04:45:56;11.60;99.90
9375;DHT22;4727;51.202;6.344;2022-08-06T04:48:23;11.60;99.90
9375;DHT22;4727;51.202;6.344;2022-08-06T04:50:49;11.70;99.90
9375;DHT22;4727;51.202;6.344;2022-08-06T04:53:16;11.70;99.90
9375;DHT22;4727;51.202;6.344;2022-08-06T04:55:43;11.70;99.90
9375;DHT22;4727;51.202;6.344;2022-08-06T04:58:12;11.70;99.90
9375;DHT22;4727;51.202;6.344;2022-08-06T05:00:41;11.60;99.90
9375;DHT22;4727;51.202;6.344;2022-08-06T05:03:07;11.70;99.90
9375;DHT22;4727;51.202;6.344;2022-08-06T05:05:39;11.70;99.90
9375;DHT22;4727;51.202;6.344;2022-08-06T05:08:07;11.70;99.90
9375;DHT22;4727;51.202;6.344;2022-08-06T05:10:39;11.70;99.90
9375;DHT22;4727;51.202;6.344;2022-08-06T05:13:08;11.70;99.90
9375;DHT22;4727;51.202;6.344;2022-08-06T05:15:40;11.80;99.90
9375;DHT22;4727;51.202;6.344;2022-08-06T05:18:21;11.80;99.90
9375;DHT22;4727;51.202;6.344;2022-08-06T05:20:52;11.90;99.90
9375;DHT22;4727;51.202;6.344;2022-08-06T05:23:24;12.00;99.90
9375;DHT22;4727;51.202;6.344;2022-08-06T05:25:50;12.10;99.90
9375;DHT22;4727;51.202;6.344;2022-08-06T05:28:16;12.20;99.90
9375;DHT22;4727;51.202;6.344;2022-08-06T05:30:47;12.30;99.90
9375;DHT22;4727;51.202;6.344;2022-08-06T05:33:34;12.40;99.90
9375;DHT22;4727;51.202;6.344;2022-08-06T05:36:08;12.40;99.90
9375;DHT22;4727;51.202;6.344;2022-08-06T05:38:38;12.50;99.90
9375;DHT22;4727;51.202;6.344;2022-08-06T05:41:10;12.60;99.90
9375;DHT22;4727;51.202;6.344;2022-08-06T05:43:38;12.70;99.90
9375;DHT22;4727;51.202;6.344;2022-08-06T05:46:07;12.80;99.90
9375;DHT22;4727;51.202;6.344;2022-08-06T05:48:37;12.90;99.90
9375;DHT22;4727;51.202;6.344;2022-08-06T05:51:10;12.90;99.90
9375;DHT22;4727;51.202;6.344;2022-08-06T05:53:48;13.00;99.90
9375;DHT22;4727;51.202;6.344;2022-08-06T05:56:23;13.10;99.90
9375;DHT22;4727;51.202;6.344;2022-08-06T05:58:55;13.20;99.90
9375;DHT22;4727;51.202;6.344;2022-08-06T06:01:23;13.30;99.30
9375;DHT22;4727;51.202;6.344;2022-08-06T06:03:50;13.40;82.30
9375;DHT22;4727;51.202;6.344;2022-08-06T06:06:20;13.50;65.40
9375;DHT22;4727;51.202;6.344;2022-08-06T06:08:46;13.60;36.80
9375;DHT22;4727;51.202;6.344;2022-08-06T06:11:12;13.70;28.10
9375;DHT22;4727;51.202;6.344;2022-08-06T06:13:41;13.70;1.00
9375;DHT22;4727;51.202;6.344;2022-08-06T06:19:14;13.80;1.00
9375;DHT22;4727;51.202;6.344;2022-08-06T06:21:54;14.10;93.40
9375;DHT22;4727;51.202;6.344;2022-08-06T06:24:35;14.20;13.50
9375;DHT22;4727;51.202;6.344;2022-08-06T06:29:40;14.50;1.00
9375;DHT22;4727;51.202;6.344;2022-08-06T06:35:03;14.60;1.00
9375;DHT22;4727;51.202;6.344;2022-08-06T06:37:51;14.60;56.20
9375;DHT22;4727;51.202;6.344;2022-08-06T06:43:22;14.70;1.00
9375;DHT22;4727;51.202;6.344;2022-08-06T06:48:46;14.90;1.00
9375;DHT22;4727;51.202;6.344;2022-08-06T06:51:26;15.00;1.00
9375;DHT22;4727;51.202;6.344;2022-08-06T06:53:53;15.10;1.00
9375;DHT22;4727;51.202;6.344;2022-08-06T06:56:24;15.10;1.00
9375;DHT22;4727;51.202;6.344;2022-08-06T07:01:23;15.30;1.00
9375;DHT22;4727;51.202;6.344;2022-08-06T07:03:49;15.40;1.00
9375;DHT22;4727;51.202;6.344;2022-08-06T07:06:16;15.50;12.70
9375;DHT22;4727;51.202;6.344;2022-08-06T07:08:45;15.70;1.00
9375;DHT22;4727;51.202;6.344;2022-08-06T07:11:19;15.70;1.00
9375;DHT22;4727;51.202;6.344;2022-08-06T07:13:46;15.80;1.00
9375;DHT22;4727;51.202;6.344;2022-08-06T07:16:14;15.90;99.90
9375;DHT22;4727;51.202;6.344;2022-08-06T07:18:42;16.00;99.90
9375;DHT22;4727;51.202;6.344;2022-08-06T07:21:10;16.10;94.80
9375;DHT22;4727;51.202;6.344;2022-08-06T07:23:36;16.20;1.00
9375;DHT22;4727;51.202;6.344;2022-08-06T07:26:04;16.30;1.00
9375;DHT22;4727;51.202;6.344;2022-08-06T07:28:31;16.30;1.00
9375;DHT22;4727;51.202;6.344;2022-08-06T07:30:59;16.40;1.00
9375;DHT22;4727;51.202;6.344;2022-08-06T07:33:25;16.40;1.00
9375;DHT22;4727;51.202;6.344;2022-08-06T07:35:52;16.50;99.90
9375;DHT22;4727;51.202;6.344;2022-08-06T07:38:20;16.60;99.90
9375;DHT22;4727;51.202;6.344;2022-08-06T07:40:52;16.70;99.90
9375;DHT22;4727;51.202;6.344;2022-08-06T07:43:25;16.80;99.90
9375;DHT22;4727;51.202;6.344;2022-08-06T07:45:54;16.80;1.00
9375;DHT22;4727;51.202;6.344;2022-08-06T07:48:27;16.90;99.90
9375;DHT22;4727;51.202;6.344;2022-08-06T07:50:54;17.00;99.90
9375;DHT22;4727;51.202;6.344;2022-08-06T07:53:21;17.00;1.00
9375;DHT22;4727;51.202;6.344;2022-08-06T07:55:48;17.10;1.00
9375;DHT22;4727;51.202;6.344;2022-08-06T07:58:14;17.20;32.80
9375;DHT22;4727;51.202;6.344;2022-08-06T08:00:40;17.30;1.00
9375;DHT22;4727;51.202;6.344;2022-08-06T08:03:08;17.30;99.90
9375;DHT22;4727;51.202;6.344;2022-08-06T08:05:53;17.30;99.90
9375;DHT22;4727;51.202;6.344;2022-08-06T08:08:38;17.40;99.90
9375;DHT22;4727;51.202;6.344;2022-08-06T08:11:05;17.50;1.00
9375;DHT22;4727;51.202;6.344;2022-08-06T08:13:32;17.50;74.10
9375;DHT22;4727;51.202;6.344;2022-08-06T08:15:59;17.60;1.00
9375;DHT22;4727;51.202;6.344;2022-08-06T08:18:29;17.60;99.90
9375;DHT22;4727;51.202;6.344;2022-08-06T08:20:58;17.70;99.90
9375;DHT22;4727;51.202;6.344;2022-08-06T08:23:24;17.80;99.90
9375;DHT22;4727;51.202;6.344;2022-08-06T08:25:51;17.80;99.90
9375;DHT22;4727;51.202;6.344;2022-08-06T08:28:17;17.90;99.90
9375;DHT22;4727;51.202;6.344;2022-08-06T08:30:44;18.00;1.00
9375;DHT22;4727;51.202;6.344;2022-08-06T08:33:09;18.00;1.00
9375;DHT22;4727;51.202;6.344;2022-08-06T08:35:35;18.00;99.90
9375;DHT22;4727;51.202;6.344;2022-08-06T08:38:01;18.10;85.30
9375;DHT22;4727;51.202;6.344;2022-08-06T08:40:27;18.20;1.00
9375;DHT22;4727;51.202;6.344;2022-08-06T08:42:56;18.20;1.00
9375;DHT22;4727;51.202;6.344;2022-08-06T08:45:24;18.20;16.20
9375;DHT22;4727;51.202;6.344;2022-08-06T08:47:52;18.30;99.90
9375;DHT22;4727;51.202;6.344;2022-08-06T08:50:23;18.40;99.90
9375;DHT22;4727;51.202;6.344;2022-08-06T08:52:52;18.40;99.90
9375;DHT22;4727;51.202;6.344;2022-08-06T08:55:24;18.40;38.30
9375;DHT22;4727;51.202;6.344;2022-08-06T08:57:51;18.30;99.90
9375;DHT22;4727;51.202;6.344;2022-08-06T09:00:19;18.30;1.00
9375;DHT22;4727;51.202;6.344;2022-08-06T09:02:44;18.40;1.00
9375;DHT22;4727;51.202;6.344;2022-08-06T09:05:10;18.40;1.00
9375;DHT22;4727;51.202;6.344;2022-08-06T09:07:36;18.50;99.90
9375;DHT22;4727;51.202;6.344;2022-08-06T09:10:04;18.50;1.00
9375;DHT22;4727;51.202;6.344;2022-08-06T09:12:30;18.50;99.90
9375;DHT22;4727;51.202;6.344;2022-08-06T09:14:56;18.50;99.90
9375;DHT22;4727;51.202;6.344;2022-08-06T09:17:21;18.50;1.00
9375;DHT22;4727;51.202;6.344;2022-08-06T09:19:49;18.50;99.90
9375;DHT22;4727;51.202;6.344;2022-08-06T09:22:15;18.60;1.00
9375;DHT22;4727;51.202;6.344;2022-08-06T09:24:40;18.60;1.00
9375;DHT22;4727;51.202;6.344;2022-08-06T09:27:15;18.70;1.00
9375;DHT22;4727;51.202;6.344;2022-08-06T09:29:57;18.70;99.90
9375;DHT22;4727;51.202;6.344;2022-08-06T09:32:42;18.80;1.00
9375;DHT22;4727;51.202;6.344;2022-08-06T09:35:19;18.90;1.00
9375;DHT22;4727;51.202;6.344;2022-08-06T09:37:45;18.90;99.90
9375;DHT22;4727;51.202;6.344;2022-08-06T09:40:16;18.90;99.90
9375;DHT22;4727;51.202;6.344;2022-08-06T09:42:44;18.90;99.90
9375;DHT22;4727;51.202;6.344;2022-08-06T09:45:12;19.00;1.00
9375;DHT22;4727;51.202;6.344;2022-08-06T09:47:38;19.10;82.50
9375;DHT22;4727;51.202;6.344;2022-08-06T09:50:05;19.20;99.90
9375;DHT22;4727;51.202;6.344;2022-08-06T09:52:31;19.20;1.00
9375;DHT22;4727;51.202;6.344;2022-08-06T09:54:57;19.20;1.00
9375;DHT22;4727;51.202;6.344;2022-08-06T09:57:27;19.30;1.00
9375;DHT22;4727;51.202;6.344;2022-08-06T09:59:53;19.40;1.00
9375;DHT22;4727;51.202;6.344;2022-08-06T10:02:20;19.40;99.90
9375;DHT22;4727;51.202;6.344;2022-08-06T10:04:47;19.40;99.90
9375;DHT22;4727;51.202;6.344;2022-08-06T10:07:13;19.40;1.00
9375;DHT22;4727;51.202;6.344;2022-08-06T10:09:54;19.40;99.90
9375;DHT22;4727;51.202;6.344;2022-08-06T10:12:23;19.50;99.90
9375;DHT22;4727;51.202;6.344;2022-08-06T10:14:50;19.50;99.90
9375;DHT22;4727;51.202;6.344;2022-08-06T10:17:20;19.60;99.90
9375;DHT22;4727;51.202;6.344;2022-08-06T10:22:31;19.70;1.00
9375;DHT22;4727;51.202;6.344;2022-08-06T10:25:01;19.70;93.50
9375;DHT22;4727;51.202;6.344;2022-08-06T10:27:32;19.80;1.00
9375;DHT22;4727;51.202;6.344;2022-08-06T10:30:07;19.90;1.00
9375;DHT22;4727;51.202;6.344;2022-08-06T10:32:41;19.90;99.90
9375;DHT22;4727;51.202;6.344;2022-08-06T10:35:08;20.10;99.90
9375;DHT22;4727;51.202;6.344;2022-08-06T10:37:38;20.20;99.90
9375;DHT22;4727;51.202;6.344;2022-08-06T10:40:11;20.30;99.90
9375;DHT22;4727;51.202;6.344;2022-08-06T10:42:38;20.30;99.90
9375;DHT22;4727;51.202;6.344;2022-08-06T10:45:05;20.30;1.00
9375;DHT22;4727;51.202;6.344;2022-08-06T10:47:32;20.40;1.00
9375;DHT22;4727;51.202;6.344;2022-08-06T10:49:58;20.40;1.00
9375;DHT22;4727;51.202;6.344;2022-08-06T10:52:25;20.50;99.90
9375;DHT22;4727;51.202;6.344;2022-08-06T10:54:51;20.40;99.90
9375;DHT22;4727;51.202;6.344;2022-08-06T10:57:18;20.50;99.90
9375;DHT22;4727;51.202;6.344;2022-08-06T10:59:45;20.60;1.00
9375;DHT22;4727;51.202;6.344;2022-08-06T11:08:02;20.60;1.00
9375;DHT22;4727;51.202;6.344;2022-08-06T11:15:49;20.40;99.90
9375;DHT22;4727;51.202;6.344;2022-08-06T11:18:16;20.30;1.00
9375;DHT22;4727;51.202;6.344;2022-08-06T11:20:46;20.40;99.90
9375;DHT22;4727;51.202;6.344;2022-08-06T11:28:20;20.70;1.00
9375;DHT22;4727;51.202;6.344;2022-08-06T11:31:06;20.70;74.60
9375;DHT22;4727;51.202;6.344;2022-08-06T11:35:59;20.80;99.90
9375;DHT22;4727;51.202;6.344;2022-08-06T11:41:21;20.90;99.90
9375;DHT22;4727;51.202;6.344;2022-08-06T11:46:21;20.80;99.90
9375;DHT22;4727;51.202;6.344;2022-08-06T11:51:44;20.70;1.00
9375;DHT22;4727;51.202;6.344;2022-08-06T11:54:19;20.80;99.90
9375;DHT22;4727;51.202;6.344;2022-08-06T12:07:40;20.60;1.00
9375;DHT22;4727;51.202;6.344;2022-08-06T12:17:57;20.70;99.90
9375;DHT22;4727;51.202;6.344;2022-08-06T12:20:29;20.80;1.00
9375;DHT22;4727;51.202;6.344;2022-08-06T12:22:57;20.90;99.90
9375;DHT22;4727;51.202;6.344;2022-08-06T12:25:32;21.10;1.00
9375;DHT22;4727;51.202;6.344;2022-08-06T12:27:58;21.20;99.90
9375;DHT22;4727;51.202;6.344;2022-08-06T12:30:24;21.30;99.90
9375;DHT22;4727;51.202;6.344;2022-08-06T12:32:59;21.60;1.00
9375;DHT22;4727;51.202;6.344;2022-08-06T12:35:25;21.80;99.90
9375;DHT22;4727;51.202;6.344;2022-08-06T12:37:51;22.00;1.00
9375;DHT22;4727;51.202;6.344;2022-08-06T12:40:19;22.30;1.00
9375;DHT22;4727;51.202;6.344;2022-08-06T12:43:07;22.40;1.00
9375;DHT22;4727;51.202;6.344;2022-08-06T12:45:33;22.50;1.00
9375;DHT22;4727;51.202;6.344;2022-08-06T12:48:10;22.60;1.00
9375;DHT22;4727;51.202;6.344;2022-08-06T12:50:40;22.60;1.00
9375;DHT22;4727;51.202;6.344;2022-08-06T12:53:12;22.40;1.00
9375;DHT22;4727;51.202;6.344;2022-08-06T12:55:45;22.30;1.00
9375;DHT22;4727;51.202;6.344;2022-08-06T12:58:12;22.10;1.00
9375;DHT22;4727;51.202;6.344;2022-08-06T13:00:41;22.10;32.20
9375;DHT22;4727;51.202;6.344;2022-08-06T13:03:07;22.00;67.90
9375;DHT22;4727;51.202;6.344;2022-08-06T13:05:34;21.90;1.00
9375;DHT22;4727;51.202;6.344;2022-08-06T13:08:00;21.80;1.00
9375;DHT22;4727;51.202;6.344;2022-08-06T13:10:27;21.70;1.00
9375;DHT22;4727;51.202;6.344;2022-08-06T13:15:19;21.70;99.90
9375;DHT22;4727;51.202;6.344;2022-08-06T13:18:04;21.60;99.90
9375;DHT22;4727;51.202;6.344;2022-08-06T13:20:37;21.70;1.00
9375;DHT22;4727;51.202;6.344;2022-08-06T13:23:03;21.60;1.00
9375;DHT22;4727;51.202;6.344;2022-08-06T13:25:40;21.60;1.00
9375;DHT22;4727;51.202;6.344;2022-08-06T13:28:10;21.60;99.90
9375;DHT22;4727;51.202;6.344;2022-08-06T13:30:36;21.70;64.20
9375;DHT22;4727;51.202;6.344;2022-08-06T13:33:28;21.60;99.90
9375;DHT22;4727;51.202;6.344;2022-08-06T13:36:07;21.60;99.90
9375;DHT22;4727;51.202;6.344;2022-08-06T13:38:34;21.70;1.00
9375;DHT22;4727;51.202;6.344;2022-08-06T13:41:01;21.70;1.00
9375;DHT22;4727;51.202;6.344;2022-08-06T13:43:37;21.70;91.70
9375;DHT22;4727;51.202;6.344;2022-08-06T13:48:58;21.90;99.90
9375;DHT22;4727;51.202;6.344;2022-08-06T13:51:24;22.20;1.00
9375;DHT22;4727;51.202;6.344;2022-08-06T13:53:50;22.50;99.90
9375;DHT22;4727;51.202;6.344;2022-08-06T13:56:17;22.80;1.00
9375;DHT22;4727;51.202;6.344;2022-08-06T13:58:43;23.20;99.90
9375;DHT22;4727;51.202;6.344;2022-08-06T14:01:12;23.60;3.40
9375;DHT22;4727;51.202;6.344;2022-08-06T14:03:38;24.10;99.90
9375;DHT22;4727;51.202;6.344;2022-08-06T14:06:04;24.40;99.90
9375;DHT22;4727;51.202;6.344;2022-08-06T14:08:30;24.40;1.00
9375;DHT22;4727;51.202;6.344;2022-08-06T14:10:55;24.60;99.90
9375;DHT22;4727;51.202;6.344;2022-08-06T14:13:21;24.80;41.90
9375;DHT22;4727;51.202;6.344;2022-08-06T14:15:49;24.70;99.90
9375;DHT22;4727;51.202;6.344;2022-08-06T14:18:16;24.60;1.00
9375;DHT22;4727;51.202;6.344;2022-08-06T14:20:42;24.40;1.00
9375;DHT22;4727;51.202;6.344;2022-08-06T14:23:09;24.10;99.90
9375;DHT22;4727;51.202;6.344;2022-08-06T14:25:34;23.80;99.90
9375;DHT22;4727;51.202;6.344;2022-08-06T14:28:00;23.90;1.00
9375;DHT22;4727;51.202;6.344;2022-08-06T14:30:26;24.20;1.00
9375;DHT22;4727;51.202;6.344;2022-08-06T14:32:53;24.50;99.90
9375;DHT22;4727;51.202;6.344;2022-08-06T14:35:19;24.90;1.00
9375;DHT22;4727;51.202;6.344;2022-08-06T14:37:45;25.20;1.00
9375;DHT22;4727;51.202;6.344;2022-08-06T14:40:12;25.40;1.00
9375;DHT22;4727;51.202;6.344;2022-08-06T14:42:38;25.80;99.90
9375;DHT22;4727;51.202;6.344;2022-08-06T14:45:23;25.90;99.90
9375;DHT22;4727;51.202;6.344;2022-08-06T14:47:50;25.90;99.90
9375;DHT22;4727;51.202;6.344;2022-08-06T14:50:16;26.00;1.00
9375;DHT22;4727;51.202;6.344;2022-08-06T14:52:43;26.10;99.90
9375;DHT22;4727;51.202;6.344;2022-08-06T14:55:09;26.10;99.90
9375;DHT22;4727;51.202;6.344;2022-08-06T14:57:36;26.20;1.00
9375;DHT22;4727;51.202;6.344;2022-08-06T15:00:06;26.20;1.00
9375;DHT22;4727;51.202;6.344;2022-08-06T15:02:32;26.10;99.90
9375;DHT22;4727;51.202;6.344;2022-08-06T15:04:58;26.10;1.00
9375;DHT22;4727;51.202;6.344;2022-08-06T15:07:24;26.00;1.00
9375;DHT22;4727;51.202;6.344;2022-08-06T15:09:49;25.80;1.00
9375;DHT22;4727;51.202;6.344;2022-08-06T15:12:16;25.70;99.90
9375;DHT22;4727;51.202;6.344;2022-08-06T15:14:42;25.40;1.00
9375;DHT22;4727;51.202;6.344;2022-08-06T15:17:07;25.30;99.90
9375;DHT22;4727;51.202;6.344;2022-08-06T15:19:33;25.40;99.90
9375;DHT22;4727;51.202;6.344;2022-08-06T15:21:59;25.50;99.90
9375;DHT22;4727;51.202;6.344;2022-08-06T15:24:24;25.70;99.90
9375;DHT22;4727;51.202;6.344;2022-08-06T15:26:50;25.90;1.00
9375;DHT22;4727;51.202;6.344;2022-08-06T15:29:16;26.00;99.90
9375;DHT22;4727;51.202;6.344;2022-08-06T15:31:42;26.20;1.00
9375;DHT22;4727;51.202;6.344;2022-08-06T15:34:08;26.40;1.00
9375;DHT22;4727;51.202;6.344;2022-08-06T15:36:34;26.70;11.60
9375;DHT22;4727;51.202;6.344;2022-08-06T15:41:25;26.70;1.00
9375;DHT22;4727;51.202;6.344;2022-08-06T15:43:53;25.90;1.00
9375;DHT22;4727;51.202;6.344;2022-08-06T15:46:19;25.50;1.00
9375;DHT22;4727;51.202;6.344;2022-08-06T15:48:46;25.10;1.00
9375;DHT22;4727;51.202;6.344;2022-08-06T15:51:11;24.90;1.00
9375;DHT22;4727;51.202;6.344;2022-08-06T15:53:37;24.60;1.00
9375;DHT22;4727;51.202;6.344;2022-08-06T15:56:03;24.30;99.90
9375;DHT22;4727;51.202;6.344;2022-08-06T15:58:29;24.20;99.90
9375;DHT22;4727;51.202;6.344;2022-08-06T16:00:55;24.10;1.00
9375;DHT22;4727;51.202;6.344;2022-08-06T16:03:20;24.10;99.90
9375;DHT22;4727;51.202;6.344;2022-08-06T16:05:46;24.30;99.90
9375;DHT22;4727;51.202;6.344;2022-08-06T16:08:12;24.50;1.00
9375;DHT22;4727;51.202;6.344;2022-08-06T16:10:47;24.60;99.90
9375;DHT22;4727;51.202;6.344;2022-08-06T16:13:15;24.80;1.00
9375;DHT22;4727;51.202;6.344;2022-08-06T16:15:47;25.10;1.00
9375;DHT22;4727;51.202;6.344;2022-08-06T16:18:23;25.30;1.00
9375;DHT22;4727;51.202;6.344;2022-08-06T16:20:50;25.50;1.00
9375;DHT22;4727;51.202;6.344;2022-08-06T16:23:16;25.40;1.00
9375;DHT22;4727;51.202;6.344;2022-08-06T16:25:42;25.40;1.00
9375;DHT22;4727;51.202;6.344;2022-08-06T16:28:09;25.20;1.00
9375;DHT22;4727;51.202;6.344;2022-08-06T16:30:35;24.80;99.90
9375;DHT22;4727;51.202;6.344;2022-08-06T16:33:01;24.60;1.00
9375;DHT22;4727;51.202;6.344;2022-08-06T16:35:27;24.30;99.90
9375;DHT22;4727;51.202;6.344;2022-08-06T16:37:53;24.00;1.00
9375;DHT22;4727;51.202;6.344;2022-08-06T16:40:21;23.80;1.00
9375;DHT22;4727;51.202;6.344;2022-08-06T16:42:47;23.60;1.00
9375;DHT22;4727;51.202;6.344;2022-08-06T16:45:13;23.50;99.90
9375;DHT22;4727;51.202;6.344;2022-08-06T16:47:39;23.40;99.90
9375;DHT22;4727;51.202;6.344;2022-08-06T16:50:06;23.30;1.00
9375;DHT22;4727;51.202;6.344;2022-08-06T16:52:31;23.30;99.90
9375;DHT22;4727;51.202;6.344;2022-08-06T16:54:57;23.20;1.00
9375;DHT22;4727;51.202;6.344;2022-08-06T16:57:22;23.20;99.90
9375;DHT22;4727;51.202;6.344;2022-08-06T16:59:48;23.20;1.00
9375;DHT22;4727;51.202;6.344;2022-08-06T17:02:13;23.10;99.90
9375;DHT22;4727;51.202;6.344;2022-08-06T17:04:58;23.10;99.90
9375;DHT22;4727;51.202;6.344;2022-08-06T17:07:23;23.00;1.00
9375;DHT22;4727;51.202;6.344;2022-08-06T17:09:49;22.90;99.90
9375;DHT22;4727;51.202;6.344;2022-08-06T17:12:15;22.90;99.90
9375;DHT22;4727;51.202;6.344;2022-08-06T17:14:41;22.90;99.90
9375;DHT22;4727;51.202;6.344;2022-08-06T17:17:06;22.80;99.90
9375;DHT22;4727;51.202;6.344;2022-08-06T17:19:32;22.70;1.00
9375;DHT22;4727;51.202;6.344;2022-08-06T17:21:58;22.60;1.00
9375;DHT22;4727;51.202;6.344;2022-08-06T17:24:24;22.50;1.00
9375;DHT22;4727;51.202;6.344;2022-08-06T17:26:50;22.50;87.40
9375;DHT22;4727;51.202;6.344;2022-08-06T17:29:16;22.40;1.00
9375;DHT22;4727;51.202;6.344;2022-08-06T17:31:42;22.40;99.90
9375;DHT22;4727;51.202;6.344;2022-08-06T17:34:09;22.30;1.00
9375;DHT22;4727;51.202;6.344;2022-08-06T17:36:36;22.30;99.90
9375;DHT22;4727;51.202;6.344;2022-08-06T17:39:03;22.30;99.90
9375;DHT22;4727;51.202;6.344;2022-08-06T17:41:29;22.30;99.90
9375;DHT22;4727;51.202;6.344;2022-08-06T17:43:54;22.20;1.00